Time;durP1;ratioP1;P1;durP2;ratioP2;P2;SDS_P1;SDS_P2;PMS_P1;PMS_P2;Temp;Humidity;BMP_temperature;BMP_pressure;BME280_temperature;BME280_humidity;BME280_pressure;Samples;Min_cycle;Max_cycle;Signal;HPM_P1;HPM_P2
2022/03/11 00:00:30;;;;;;;7.47;1.70;;;;;;;;;;1664615;29;21563;-58
2022/03/11 00:01:22;;;;;;;2.38;1.30;;;;;;;;;;1657657;29;21604;-58
2022/03/11 00:02:14;;;;;;;7.32;1.40;;;;;;;;;;1657765;29;21538;-58
2022/03/11 00:03:05;;;;;;;2.05;1.45;;;;;;;;;;1662099;29;22115;-58
2022/03/11 00:03:57;;;;;;;7.22;1.83;;;;;;;;;;1664654;29;21619;-58
2022/03/11 00:04:49;;;;;;;2.78;1.73;;;;;;;;;;1664381;29;21997;-58
2022/03/11 00:05:41;;;;;;;1.30;1.20;;;;;;;;;;1664513;29;22083;-59
2022/03/11 00:06:32;;;;;;;2.88;1.40;;;;;;;;;;1664632;29;22155;-58
2022/03/11 00:07:26;;;;;;;5.63;1.42;;;;;;;;;;1664560;29;21895;-58
2022/03/11 00:08:17;;;;;;;3.65;1.48;;;;;;;;;;1664624;29;22082;-58
2022/03/11 00:09:09;;;;;;;4.53;1.10;;;;;;;;;;1664674;29;21500;-57
2022/03/11 00:10:01;;;;;;;4.05;1.55;;;;;;;;;;1664362;29;21554;-58
2022/03/11 00:10:53;;;;;;;5.93;1.50;;;;;;;;;;1664617;29;21559;-57
2022/03/11 00:11:44;;;;;;;7.78;1.33;;;;;;;;;;1664584;29;21574;-58
2022/03/11 00:12:37;;;;;;;5.43;1.48;;;;;;;;;;1664560;29;21566;-58
2022/03/11 00:13:29;;;;;;;6.03;1.63;;;;;;;;;;1664500;29;21633;-58
2022/03/11 00:14:21;;;;;;;2.22;1.63;;;;;;;;;;1664388;29;21585;-58
2022/03/11 00:15:12;;;;;;;2.17;1.58;;;;;;;;;;1664202;29;21713;-58
2022/03/11 00:16:05;;;;;;;2.53;1.45;;;;;;;;;;1664611;29;21503;-59
2022/03/11 00:16:56;;;;;;;4.35;1.30;;;;;;;;;;1664413;29;21579;-58
2022/03/11 00:17:48;;;;;;;4.50;1.35;;;;;;;;;;1664381;29;21571;-58
2022/03/11 00:18:40;;;;;;;1.90;1.30;;;;;;;;;;1664514;29;21613;-58
2022/03/11 00:19:32;;;;;;;3.85;1.60;;;;;;;;;;1664518;29;21701;-59
2022/03/11 00:20:25;;;;;;;3.63;1.60;;;;;;;;;;1664403;29;21561;-58
2022/03/11 00:21:17;;;;;;;7.55;1.58;;;;;;;;;;1664672;29;21692;-58
2022/03/11 00:22:10;;;;;;;8.15;1.33;;;;;;;;;;1664430;29;22119;-58
2022/03/11 00:23:03;;;;;;;11.55;1.48;;;;;;;;;;1664505;29;21518;-58
2022/03/11 00:23:54;;;;;;;4.68;2.03;;;;;;;;;;1664341;29;21639;-59
2022/03/11 00:24:46;;;;;;;3.67;1.95;;;;;;;;;;1664398;29;21492;-59
2022/03/11 00:25:38;;;;;;;11.48;1.45;;;;;;;;;;1664307;29;21627;-58
2022/03/11 00:26:31;;;;;;;10.35;1.50;;;;;;;;;;1664418;29;21919;-58
2022/03/11 00:27:22;;;;;;;5.10;1.75;;;;;;;;;;1664510;29;21985;-58
2022/03/11 00:28:14;;;;;;;23.02;1.63;;;;;;;;;;1664485;29;21665;-58
2022/03/11 00:29:05;;;;;;;15.73;2.60;;;;;;;;;;1664477;29;21560;-58
2022/03/11 00:29:58;;;;;;;7.50;1.50;;;;;;;;;;1664250;29;21889;-59
2022/03/11 00:30:49;;;;;;;11.50;1.48;;;;;;;;;;1664246;29;21663;-58
2022/03/11 00:31:41;;;;;;;7.43;1.60;;;;;;;;;;1664446;29;21548;-58
2022/03/11 00:32:32;;;;;;;2.92;1.83;;;;;;;;;;1664309;29;21568;-59
2022/03/11 00:33:25;;;;;;;2.85;1.60;;;;;;;;;;1664435;29;21610;-58
2022/03/11 00:34:17;;;;;;;10.85;1.38;;;;;;;;;;1664444;29;21582;-59
2022/03/11 00:35:10;;;;;;;3.80;1.27;;;;;;;;;;1664383;29;21528;-59
2022/03/11 00:36:02;;;;;;;6.70;1.55;;;;;;;;;;1664234;29;21605;-59
2022/03/11 00:36:54;;;;;;;7.53;1.30;;;;;;;;;;1664494;29;21995;-58
2022/03/11 00:37:45;;;;;;;3.25;1.40;;;;;;;;;;1664477;29;21621;-58
2022/03/11 00:38:39;;;;;;;2.65;1.50;;;;;;;;;;1665379;29;21529;-58
2022/03/11 00:39:30;;;;;;;5.70;1.23;;;;;;;;;;1658731;29;21621;-58
2022/03/11 00:40:22;;;;;;;8.73;1.60;;;;;;;;;;1658372;29;22028;-58
2022/03/11 00:41:13;;;;;;;3.65;1.40;;;;;;;;;;1662912;29;21567;-58
2022/03/11 00:42:05;;;;;;;1.70;1.30;;;;;;;;;;1665507;29;21502;-59
2022/03/11 00:42:56;;;;;;;9.18;1.45;;;;;;;;;;1665421;29;21577;-59
2022/03/11 00:43:49;;;;;;;6.50;1.10;;;;;;;;;;1665554;29;21641;-58
2022/03/11 00:44:40;;;;;;;7.30;1.30;;;;;;;;;;1665509;29;21630;-58
2022/03/11 00:45:32;;;;;;;3.58;1.40;;;;;;;;;;1665561;29;21570;-58
2022/03/11 00:46:24;;;;;;;1.35;1.25;;;;;;;;;;1665618;29;21698;-58
2022/03/11 00:47:16;;;;;;;1.90;1.40;;;;;;;;;;1665611;29;21616;-59
2022/03/11 00:48:07;;;;;;;2.45;1.27;;;;;;;;;;1665480;29;21993;-58
2022/03/11 00:48:58;;;;;;;2.33;1.65;;;;;;;;;;1665471;29;21588;-58
2022/03/11 00:49:50;;;;;;;2.75;1.65;;;;;;;;;;1665437;29;21487;-59
2022/03/11 00:50:41;;;;;;;1.35;1.25;;;;;;;;;;1665373;29;21957;-58
2022/03/11 00:51:34;;;;;;;1.50;1.33;;;;;;;;;;1665510;29;21878;-59
2022/03/11 00:52:25;;;;;;;3.58;1.27;;;;;;;;;;1665540;29;21562;-58
2022/03/11 00:53:18;;;;;;;2.92;1.80;;;;;;;;;;1658556;29;21544;-58
2022/03/11 00:54:11;;;;;;;10.73;1.85;;;;;;;;;;1658602;29;21583;-58
2022/03/11 00:55:04;;;;;;;4.15;1.30;;;;;;;;;;1663195;29;21625;-58
2022/03/11 00:55:55;;;;;;;6.20;1.10;;;;;;;;;;1665300;29;21584;-58
2022/03/11 00:56:48;;;;;;;5.43;1.42;;;;;;;;;;1658552;29;21687;-58
2022/03/11 00:57:39;;;;;;;1.80;1.40;;;;;;;;;;1658613;29;21639;-58
2022/03/11 00:58:31;;;;;;;6.78;1.67;;;;;;;;;;1662953;29;21865;-58
2022/03/11 00:59:22;;;;;;;11.48;1.83;;;;;;;;;;1665389;29;21574;-58
2022/03/11 01:00:16;;;;;;;8.10;1.27;;;;;;;;;;1665386;29;21738;-58
2022/03/11 01:01:08;;;;;;;3.20;1.38;;;;;;;;;;1665443;29;21503;-58
2022/03/11 01:02:00;;;;;;;1.65;1.33;;;;;;;;;;1665522;29;21562;-58
2022/03/11 01:02:52;;;;;;;12.45;1.38;;;;;;;;;;1665342;29;21585;-58
2022/03/11 01:03:44;;;;;;;3.95;1.40;;;;;;;;;;1665286;29;21580;-59
2022/03/11 01:04:36;;;;;;;5.80;1.45;;;;;;;;;;1665344;29;21529;-58
2022/03/11 01:05:28;;;;;;;3.13;1.20;;;;;;;;;;1665294;29;22111;-58
2022/03/11 01:06:19;;;;;;;4.88;1.50;;;;;;;;;;1665244;29;22039;-57
2022/03/11 01:07:11;;;;;;;10.18;1.40;;;;;;;;;;1665281;29;21641;-57
2022/03/11 01:08:02;;;;;;;1.98;1.23;;;;;;;;;;1665466;29;21586;-58
2022/03/11 01:08:55;;;;;;;3.78;1.40;;;;;;;;;;1665280;29;22102;-58
2022/03/11 01:09:47;;;;;;;3.55;1.33;;;;;;;;;;1665256;29;21653;-59
2022/03/11 01:10:40;;;;;;;5.78;1.58;;;;;;;;;;1665313;29;21511;-59
2022/03/11 01:11:32;;;;;;;2.13;1.40;;;;;;;;;;1665406;29;21566;-58
2022/03/11 01:12:24;;;;;;;3.42;1.52;;;;;;;;;;1665462;29;21603;-58
2022/03/11 01:13:16;;;;;;;4.93;1.38;;;;;;;;;;1665358;29;21632;-59
2022/03/11 01:14:08;;;;;;;2.03;1.30;;;;;;;;;;1665359;29;21557;-58
2022/03/11 01:14:59;;;;;;;3.72;1.63;;;;;;;;;;1665261;29;21690;-59
2022/03/11 01:15:52;;;;;;;9.18;1.20;;;;;;;;;;1665264;29;21503;-60
2022/03/11 01:16:43;;;;;;;1.80;1.55;;;;;;;;;;1665385;29;21572;-59
2022/03/11 01:17:35;;;;;;;5.47;1.73;;;;;;;;;;1665272;29;21586;-59
2022/03/11 01:18:26;;;;;;;1.92;1.50;;;;;;;;;;1665308;29;22164;-59
2022/03/11 01:19:19;;;;;;;1.92;1.40;;;;;;;;;;1665264;29;21735;-58
2022/03/11 01:20:11;;;;;;;8.70;1.40;;;;;;;;;;1665159;29;21602;-58
2022/03/11 01:21:04;;;;;;;5.38;1.63;;;;;;;;;;1665222;29;21561;-59
2022/03/11 01:21:55;;;;;;;3.97;1.13;;;;;;;;;;1665161;29;21532;-59
2022/03/11 01:22:47;;;;;;;10.30;1.52;;;;;;;;;;1665352;29;21645;-59
2022/03/11 01:23:38;;;;;;;4.22;1.42;;;;;;;;;;1665380;29;21660;-59
2022/03/11 01:24:30;;;;;;;4.25;1.45;;;;;;;;;;1665368;29;21534;-58
2022/03/11 01:25:23;;;;;;;4.38;1.50;;;;;;;;;;1665044;29;21643;-58
2022/03/11 01:26:16;;;;;;;10.93;1.60;;;;;;;;;;1665231;29;21603;-59
2022/03/11 01:27:07;;;;;;;3.97;1.60;;;;;;;;;;1665316;29;21607;-59
2022/03/11 01:28:00;;;;;;;8.77;1.90;;;;;;;;;;1665201;29;22113;-59
2022/03/11 01:28:52;;;;;;;2.47;1.30;;;;;;;;;;1665253;29;21611;-58
2022/03/11 01:29:44;;;;;;;1.30;1.20;;;;;;;;;;1665167;29;21587;-58
2022/03/11 01:30:36;;;;;;;6.38;2.03;;;;;;;;;;1665155;29;21528;-58
2022/03/11 01:31:28;;;;;;;10.32;1.40;;;;;;;;;;1658406;29;21589;-59
2022/03/11 01:32:19;;;;;;;16.42;2.42;;;;;;;;;;1658427;29;21612;-58
2022/03/11 01:33:11;;;;;;;13.23;1.40;;;;;;;;;;1662857;29;21647;-59
2022/03/11 01:34:02;;;;;;;14.65;2.20;;;;;;;;;;1658283;29;21532;-59
2022/03/11 01:34:54;;;;;;;11.55;1.55;;;;;;;;;;1658260;29;21606;-59
2022/03/11 01:35:46;;;;;;;10.85;1.70;;;;;;;;;;1662691;29;21615;-59
2022/03/11 01:36:38;;;;;;;11.35;1.80;;;;;;;;;;1665215;29;21730;-58
2022/03/11 01:37:29;;;;;;;4.68;1.08;;;;;;;;;;1665251;29;22119;-58
2022/03/11 01:38:22;;;;;;;4.93;1.58;;;;;;;;;;1665239;29;22170;-59
2022/03/11 01:39:13;;;;;;;5.60;1.50;;;;;;;;;;1665275;29;21627;-58
2022/03/11 01:40:07;;;;;;;5.03;1.52;;;;;;;;;;1665106;29;21703;-59
2022/03/11 01:40:59;;;;;;;10.38;1.52;;;;;;;;;;1665050;29;21885;-58
2022/03/11 01:41:52;;;;;;;7.43;1.30;;;;;;;;;;1665237;29;21937;-59
2022/03/11 01:42:43;;;;;;;11.07;1.65;;;;;;;;;;1665124;29;21675;-59
2022/03/11 01:43:51;;;;;;;32.97;2.13;;;;;;;;;;1665099;29;21574;-58
2022/03/11 01:44:43;;;;;;;7.90;2.83;;;;;;;;;;1665144;29;21576;-58
2022/03/11 01:45:35;;;;;;;10.70;1.60;;;;;;;;;;1665100;29;21573;-59
2022/03/11 01:46:28;;;;;;;5.88;1.60;;;;;;;;;;1665273;29;21636;-58
2022/03/11 01:47:21;;;;;;;7.68;1.60;;;;;;;;;;1665197;29;22088;-58
2022/03/11 01:48:13;;;;;;;7.90;1.83;;;;;;;;;;1665014;29;21511;-58
2022/03/11 01:49:07;;;;;;;5.20;1.65;;;;;;;;;;1665170;29;21599;-58
2022/03/11 01:49:58;;;;;;;13.25;2.10;;;;;;;;;;1665060;29;21935;-59
2022/03/11 01:50:51;;;;;;;14.75;1.55;;;;;;;;;;1665019;29;21524;-58
2022/03/11 01:51:43;;;;;;;11.25;1.50;;;;;;;;;;1665249;29;21628;-58
2022/03/11 01:52:38;;;;;;;4.93;1.45;;;;;;;;;;1665265;29;21558;-58
2022/03/11 01:53:29;;;;;;;32.97;2.05;;;;;;;;;;1665230;29;21498;-58
2022/03/11 01:54:21;;;;;;;10.82;1.33;;;;;;;;;;1665272;29;21692;-58
2022/03/11 01:55:14;;;;;;;4.75;1.63;;;;;;;;;;1665121;29;21650;-59
2022/03/11 01:56:08;;;;;;;4.88;1.45;;;;;;;;;;1664890;29;21975;-58
2022/03/11 01:57:01;;;;;;;3.45;1.55;;;;;;;;;;1665237;29;21575;-58
2022/03/11 01:57:52;;;;;;;3.47;1.70;;;;;;;;;;1665002;29;22105;-59
2022/03/11 01:58:49;;;;;;;7.43;1.52;;;;;;;;;;1665016;29;21553;-59
2022/03/11 01:59:41;;;;;;;2.05;1.15;;;;;;;;;;1665049;29;22290;-58
2022/03/11 02:00:35;;;;;;;3.35;1.17;;;;;;;;;;1658094;29;22028;-58
2022/03/11 02:01:26;;;;;;;5.13;1.17;;;;;;;;;;1658076;29;21496;-58
2022/03/11 02:02:18;;;;;;;6.13;1.77;;;;;;;;;;1662911;29;21585;-58
2022/03/11 02:03:09;;;;;;;6.30;1.77;;;;;;;;;;1665267;29;21587;-58
2022/03/11 02:04:02;;;;;;;2.42;1.42;;;;;;;;;;1665281;29;21584;-57
2022/03/11 02:04:53;;;;;;;4.53;1.88;;;;;;;;;;1665070;29;21568;-58
2022/03/11 02:05:44;;;;;;;4.03;1.98;;;;;;;;;;1664905;29;22204;-59
2022/03/11 02:06:36;;;;;;;2.25;1.45;;;;;;;;;;1665038;29;22001;-59
2022/03/11 02:07:28;;;;;;;1.45;1.35;;;;;;;;;;1665082;29;21546;-58
2022/03/11 02:08:20;;;;;;;2.13;1.40;;;;;;;;;;1665016;29;21536;-58
2022/03/11 02:09:12;;;;;;;5.55;1.73;;;;;;;;;;1664997;29;21553;-59
2022/03/11 02:10:06;;;;;;;3.35;1.63;;;;;;;;;;1665084;29;21560;-59
2022/03/11 02:10:57;;;;;;;6.45;2.30;;;;;;;;;;1664975;29;21705;-59
2022/03/11 02:11:51;;;;;;;6.72;1.92;;;;;;;;;;1664935;29;21508;-59
2022/03/11 02:12:43;;;;;;;6.72;1.50;;;;;;;;;;1665084;29;21569;-58
2022/03/11 02:13:46;;;;;;;2.25;1.33;;;;;;;;;;1665083;29;21482;-59
2022/03/11 02:14:38;;;;;;;6.45;1.75;;;;;;;;;;1664862;29;22329;-58
2022/03/11 02:15:30;;;;;;;5.15;2.15;;;;;;;;;;1664834;29;21687;-58
2022/03/11 02:16:24;;;;;;;4.85;1.75;;;;;;;;;;1664875;29;21510;-57
2022/03/11 02:17:15;;;;;;;8.73;2.22;;;;;;;;;;1664960;29;21692;-58
2022/03/11 02:18:08;;;;;;;9.38;2.13;;;;;;;;;;1664877;29;21652;-59
2022/03/11 02:19:00;;;;;;;15.65;2.50;;;;;;;;;;1665178;29;21547;-58
2022/03/11 02:19:52;;;;;;;22.15;2.75;;;;;;;;;;1664966;29;21639;-59
2022/03/11 02:20:46;;;;;;;24.25;2.72;;;;;;;;;;1665054;29;21540;-58
2022/03/11 02:21:43;;;;;;;19.00;2.78;;;;;;;;;;1665065;29;21501;-58
2022/03/11 02:22:39;;;;;;;11.70;2.90;;;;;;;;;;1665065;29;21622;-58
2022/03/11 02:23:43;;;;;;;15.00;2.83;;;;;;;;;;1665044;29;21582;-58
2022/03/11 02:24:34;;;;;;;17.23;3.03;;;;;;;;;;1665080;29;21691;-59
2022/03/11 02:25:26;;;;;;;25.20;3.30;;;;;;;;;;1664872;29;21532;-58
2022/03/11 02:26:20;;;;;;;27.30;3.72;;;;;;;;;;1664825;29;21986;-58
2022/03/11 02:27:12;;;;;;;24.67;3.20;;;;;;;;;;1664809;29;21678;-58
2022/03/11 02:28:04;;;;;;;11.35;2.83;;;;;;;;;;1664978;29;21674;-58
2022/03/11 02:29:00;;;;;;;34.58;3.03;;;;;;;;;;1664833;29;21557;-59
2022/03/11 02:29:51;;;;;;;16.42;3.30;;;;;;;;;;1664938;29;22024;-59
2022/03/11 02:30:43;;;;;;;17.30;2.30;;;;;;;;;;1665151;29;21493;-58
2022/03/11 02:31:35;;;;;;;33.70;3.97;;;;;;;;;;1664947;29;21654;-58
2022/03/11 02:32:27;;;;;;;13.00;2.88;;;;;;;;;;1665080;29;21642;-58
2022/03/11 02:33:18;;;;;;;14.23;2.92;;;;;;;;;;1664866;29;21508;-58
2022/03/11 02:34:10;;;;;;;18.92;3.15;;;;;;;;;;1664839;29;21593;-58
2022/03/11 02:35:02;;;;;;;16.48;3.78;;;;;;;;;;1664857;29;21625;-58
2022/03/11 02:35:56;;;;;;;23.75;4.07;;;;;;;;;;1664940;29;21571;-58
2022/03/11 02:36:47;;;;;;;16.55;3.25;;;;;;;;;;1664778;29;21887;-58
2022/03/11 02:37:39;;;;;;;12.82;2.97;;;;;;;;;;1664993;29;21538;-59
2022/03/11 02:38:31;;;;;;;20.08;3.30;;;;;;;;;;1664887;29;21605;-58
2022/03/11 02:39:24;;;;;;;19.85;3.35;;;;;;;;;;1664890;29;21537;-59
2022/03/11 02:40:16;;;;;;;14.60;2.92;;;;;;;;;;1664777;29;21572;-58
2022/03/11 02:41:08;;;;;;;13.00;2.53;;;;;;;;;;1664639;29;21638;-58
2022/03/11 02:42:01;;;;;;;11.50;2.70;;;;;;;;;;1664836;29;21606;-58
2022/03/11 02:42:53;;;;;;;15.35;2.88;;;;;;;;;;1664917;29;21701;-58
2022/03/11 02:43:44;;;;;;;18.67;3.03;;;;;;;;;;1664891;29;21711;-59
2022/03/11 02:44:36;;;;;;;9.63;2.75;;;;;;;;;;1664947;29;21693;-58
2022/03/11 02:45:27;;;;;;;8.52;2.60;;;;;;;;;;1664774;29;21643;-58
2022/03/11 02:46:20;;;;;;;22.83;5.00;;;;;;;;;;1664867;29;21648;-58
2022/03/11 02:47:11;;;;;;;12.38;2.80;;;;;;;;;;1664684;29;21585;-58
2022/03/11 02:48:03;;;;;;;12.32;2.88;;;;;;;;;;1664829;29;21703;-59
2022/03/11 02:48:54;;;;;;;5.70;2.78;;;;;;;;;;1664922;29;21577;-59
2022/03/11 02:49:46;;;;;;;18.00;2.97;;;;;;;;;;1664764;29;21518;-58
2022/03/11 02:50:38;;;;;;;16.48;2.92;;;;;;;;;;1664809;29;21629;-59
2022/03/11 02:51:30;;;;;;;8.88;2.88;;;;;;;;;;1664868;29;21555;-59
2022/03/11 02:52:21;;;;;;;18.65;2.55;;;;;;;;;;1664689;29;21584;-59
2022/03/11 02:53:13;;;;;;;12.65;2.88;;;;;;;;;;1664729;29;21687;-58
2022/03/11 02:54:05;;;;;;;10.20;2.45;;;;;;;;;;1664866;29;21600;-58
2022/03/11 02:54:59;;;;;;;10.93;2.97;;;;;;;;;;1664592;29;21746;-59
2022/03/11 02:55:50;;;;;;;12.35;2.97;;;;;;;;;;1664817;29;21569;-58
2022/03/11 02:56:43;;;;;;;8.00;2.28;;;;;;;;;;1664954;29;21560;-59
2022/03/11 02:57:34;;;;;;;10.98;3.28;;;;;;;;;;1664762;29;21537;-59
2022/03/11 02:58:26;;;;;;;8.48;2.40;;;;;;;;;;1664835;29;21732;-59
2022/03/11 02:59:17;;;;;;;6.15;2.33;;;;;;;;;;1664790;29;21695;-59
2022/03/11 03:00:10;;;;;;;4.25;2.30;;;;;;;;;;1664618;29;21683;-58
2022/03/11 03:01:02;;;;;;;5.25;2.33;;;;;;;;;;1664232;29;22119;-58
2022/03/11 03:01:54;;;;;;;7.40;3.30;;;;;;;;;;1664989;29;21506;-59
2022/03/11 03:02:46;;;;;;;15.90;2.67;;;;;;;;;;1664807;29;21999;-59
2022/03/11 03:03:38;;;;;;;24.95;2.60;;;;;;;;;;1664893;29;21645;-59
2022/03/11 03:04:29;;;;;;;5.13;2.10;;;;;;;;;;1664757;29;22074;-58
2022/03/11 03:05:21;;;;;;;6.30;2.53;;;;;;;;;;1664562;29;22215;-59
2022/03/11 03:06:12;;;;;;;10.63;2.65;;;;;;;;;;1664629;29;21674;-59
2022/03/11 03:07:06;;;;;;;13.55;2.50;;;;;;;;;;1664883;29;22086;-57
2022/03/11 03:07:57;;;;;;;4.80;2.40;;;;;;;;;;1664835;29;21688;-58
2022/03/11 03:08:49;;;;;;;13.18;2.65;;;;;;;;;;1664793;29;21988;-58
2022/03/11 03:09:41;;;;;;;4.32;2.13;;;;;;;;;;1664657;29;21493;-57
2022/03/11 03:10:35;;;;;;;22.05;2.40;;;;;;;;;;1664666;29;21549;-58
2022/03/11 03:11:26;;;;;;;13.43;2.40;;;;;;;;;;1664816;29;21562;-59
2022/03/11 03:12:19;;;;;;;5.53;2.58;;;;;;;;;;1664628;29;21555;-59
2022/03/11 03:13:12;;;;;;;8.57;3.03;;;;;;;;;;1664785;29;21570;-58
2022/03/11 03:14:04;;;;;;;5.50;2.47;;;;;;;;;;1664668;29;22129;-58
2022/03/11 03:14:56;;;;;;;13.40;2.17;;;;;;;;;;1664719;29;21702;-58
2022/03/11 03:15:48;;;;;;;13.60;2.75;;;;;;;;;;1657738;29;21891;-58
2022/03/11 03:16:39;;;;;;;2.97;2.38;;;;;;;;;;1657859;29;21565;-57
2022/03/11 03:17:31;;;;;;;10.43;2.08;;;;;;;;;;1662443;29;21772;-58
2022/03/11 03:18:23;;;;;;;9.93;2.67;;;;;;;;;;1664636;29;21593;-58
2022/03/11 03:19:15;;;;;;;34.65;3.38;;;;;;;;;;1657725;29;21646;-59
2022/03/11 03:20:08;;;;;;;24.35;3.25;;;;;;;;;;1657725;29;21545;-59
2022/03/11 03:21:00;;;;;;;7.05;2.13;;;;;;;;;;1662524;29;21778;-59
2022/03/11 03:21:51;;;;;;;5.60;2.35;;;;;;;;;;1664959;29;21571;-59
2022/03/11 03:22:44;;;;;;;6.90;2.50;;;;;;;;;;1664779;29;21547;-58
2022/03/11 03:23:35;;;;;;;9.75;2.50;;;;;;;;;;1664786;29;22055;-59
2022/03/11 03:24:27;;;;;;;3.33;2.22;;;;;;;;;;1664681;29;21574;-59
2022/03/11 03:25:18;;;;;;;3.22;1.92;;;;;;;;;;1664698;29;21544;-58
2022/03/11 03:26:12;;;;;;;7.20;2.28;;;;;;;;;;1664682;29;21613;-59
2022/03/11 03:27:04;;;;;;;6.72;2.28;;;;;;;;;;1664766;29;21619;-58
2022/03/11 03:27:56;;;;;;;5.43;2.15;;;;;;;;;;1664662;29;21592;-58
2022/03/11 03:28:47;;;;;;;8.23;2.38;;;;;;;;;;1664651;29;21615;-58
2022/03/11 03:29:39;;;;;;;2.90;1.60;;;;;;;;;;1657761;29;21619;-59
2022/03/11 03:30:30;;;;;;;8.57;2.20;;;;;;;;;;1657743;29;21788;-58
2022/03/11 03:31:23;;;;;;;7.47;2.13;;;;;;;;;;1662273;29;21568;-59
2022/03/11 03:32:14;;;;;;;4.78;2.10;;;;;;;;;;1664714;29;21589;-59
2022/03/11 03:33:06;;;;;;;2.90;1.98;;;;;;;;;;1664670;29;21947;-57
2022/03/11 03:33:59;;;;;;;17.63;2.13;;;;;;;;;;1664506;29;21629;-58
2022/03/11 03:34:51;;;;;;;3.55;2.20;;;;;;;;;;1657721;29;21548;-59
2022/03/11 03:35:42;;;;;;;7.53;2.20;;;;;;;;;;1657838;29;22064;-58
2022/03/11 03:36:34;;;;;;;5.90;2.17;;;;;;;;;;1662186;29;21574;-58
2022/03/11 03:37:25;;;;;;;5.00;2.17;;;;;;;;;;1664548;29;21644;-58
2022/03/11 03:38:17;;;;;;;9.65;2.10;;;;;;;;;;1664740;29;21518;-59
2022/03/11 03:39:09;;;;;;;8.43;2.28;;;;;;;;;;1657684;29;21531;-58
2022/03/11 03:40:00;;;;;;;7.75;1.90;;;;;;;;;;1657664;29;22082;-58
2022/03/11 03:40:52;;;;;;;5.85;2.15;;;;;;;;;;1661785;29;21983;-59
2022/03/11 03:41:44;;;;;;;5.55;2.10;;;;;;;;;;1664606;29;21617;-58
2022/03/11 03:42:37;;;;;;;5.90;2.22;;;;;;;;;;1664620;29;21587;-58
2022/03/11 03:43:28;;;;;;;8.05;2.30;;;;;;;;;;1664616;29;22143;-58
2022/03/11 03:44:21;;;;;;;11.60;2.47;;;;;;;;;;1664735;29;21667;-58
2022/03/11 03:45:12;;;;;;;11.38;2.03;;;;;;;;;;1664438;29;21633;-58
2022/03/11 03:46:06;;;;;;;8.82;2.05;;;;;;;;;;1657668;29;21617;-58
2022/03/11 03:46:58;;;;;;;4.90;1.90;;;;;;;;;;1657770;29;21612;-58
2022/03/11 03:47:50;;;;;;;9.57;2.25;;;;;;;;;;1662480;29;21993;-59
2022/03/11 03:48:41;;;;;;;9.68;2.40;;;;;;;;;;1657649;29;21542;-59
2022/03/11 03:49:34;;;;;;;4.13;2.15;;;;;;;;;;1657849;29;22306;-57
2022/03/11 03:50:25;;;;;;;4.40;2.30;;;;;;;;;;1662024;29;21627;-58
2022/03/11 03:51:18;;;;;;;6.85;1.90;;;;;;;;;;1664550;29;21500;-58
2022/03/11 03:52:12;;;;;;;6.82;1.92;;;;;;;;;;1664516;29;21568;-59
2022/03/11 03:53:04;;;;;;;2.45;1.83;;;;;;;;;;1664532;29;22078;-59
2022/03/11 03:53:55;;;;;;;5.47;2.28;;;;;;;;;;1657686;29;21553;-59
2022/03/11 03:54:47;;;;;;;2.38;1.92;;;;;;;;;;1657574;29;21551;-58
2022/03/11 03:55:38;;;;;;;2.72;1.88;;;;;;;;;;1662020;29;21603;-58
2022/03/11 03:56:30;;;;;;;6.15;2.17;;;;;;;;;;1664617;29;21511;-58
2022/03/11 03:57:25;;;;;;;5.07;2.00;;;;;;;;;;1664493;29;22397;-59
2022/03/11 03:58:17;;;;;;;3.13;1.85;;;;;;;;;;1664564;29;21608;-58
2022/03/11 03:59:10;;;;;;;2.17;1.98;;;;;;;;;;1664658;29;21697;-58
2022/03/11 04:00:03;;;;;;;5.57;1.95;;;;;;;;;;1664424;29;21555;-57
2022/03/11 04:00:55;;;;;;;15.07;2.00;;;;;;;;;;1664376;29;21600;-59
2022/03/11 04:01:47;;;;;;;3.88;2.10;;;;;;;;;;1664573;29;21526;-57
2022/03/11 04:02:45;;;;;;;2.70;1.58;;;;;;;;;;1664553;29;22177;-57
2022/03/11 04:03:37;;;;;;;5.88;1.90;;;;;;;;;;1664654;29;21497;-58
2022/03/11 04:04:28;;;;;;;4.78;1.80;;;;;;;;;;1664445;29;21646;-57
2022/03/11 04:05:21;;;;;;;4.53;1.60;;;;;;;;;;1664413;29;21494;-57
2022/03/11 04:06:12;;;;;;;2.72;1.77;;;;;;;;;;1664514;29;21575;-57
2022/03/11 04:07:05;;;;;;;2.17;1.73;;;;;;;;;;1664648;29;21576;-58
2022/03/11 04:07:56;;;;;;;6.03;1.83;;;;;;;;;;1664597;29;21916;-58
2022/03/11 04:08:48;;;;;;;6.53;2.00;;;;;;;;;;1664689;29;22005;-57
2022/03/11 04:09:40;;;;;;;10.25;2.08;;;;;;;;;;1664412;29;21603;-58
2022/03/11 04:10:32;;;;;;;1.80;1.65;;;;;;;;;;1664363;29;21527;-59
2022/03/11 04:11:23;;;;;;;1.83;1.73;;;;;;;;;;1664614;29;21556;-59
2022/03/11 04:12:15;;;;;;;4.55;1.65;;;;;;;;;;1664547;29;21525;-58
2022/03/11 04:13:08;;;;;;;2.20;1.88;;;;;;;;;;1665145;29;21527;-59
2022/03/11 04:14:01;;;;;;;6.90;1.70;;;;;;;;;;1665731;29;21657;-58
2022/03/11 04:14:52;;;;;;;2.08;1.73;;;;;;;;;;1665730;29;22038;-58
2022/03/11 04:15:44;;;;;;;7.43;1.50;;;;;;;;;;1665692;29;22085;-59
2022/03/11 04:16:36;;;;;;;2.45;1.83;;;;;;;;;;1665758;29;22072;-59
2022/03/11 04:17:28;;;;;;;16.88;1.90;;;;;;;;;;1665429;29;21499;-58
2022/03/11 04:18:19;;;;;;;7.57;1.77;;;;;;;;;;1665518;29;21601;-58
2022/03/11 04:19:11;;;;;;;3.58;1.65;;;;;;;;;;1665622;29;21937;-59
2022/03/11 04:20:03;;;;;;;15.07;1.77;;;;;;;;;;1665496;29;21659;-59
2022/03/11 04:20:55;;;;;;;9.55;2.30;;;;;;;;;;1665745;29;21562;-58
2022/03/11 04:21:46;;;;;;;2.33;1.80;;;;;;;;;;1665874;29;21619;-58
2022/03/11 04:22:42;;;;;;;3.25;1.95;;;;;;;;;;1665782;29;22149;-58
2022/03/11 04:23:34;;;;;;;5.68;1.73;;;;;;;;;;1665661;29;21575;-58
2022/03/11 04:24:26;;;;;;;4.93;1.70;;;;;;;;;;1665765;29;21567;-59
2022/03/11 04:25:17;;;;;;;3.95;1.50;;;;;;;;;;1665451;29;21623;-59
2022/03/11 04:26:09;;;;;;;7.85;2.08;;;;;;;;;;1665507;29;21663;-59
2022/03/11 04:27:00;;;;;;;6.97;1.98;;;;;;;;;;1665550;29;21610;-58
2022/03/11 04:27:53;;;;;;;7.32;1.67;;;;;;;;;;1665648;29;21527;-58
2022/03/11 04:28:45;;;;;;;2.50;1.85;;;;;;;;;;1665618;29;21572;-58
2022/03/11 04:29:37;;;;;;;6.22;1.42;;;;;;;;;;1665545;29;21672;-58
2022/03/11 04:30:29;;;;;;;3.83;1.75;;;;;;;;;;1665229;29;21923;-58
2022/03/11 04:31:21;;;;;;;3.97;1.80;;;;;;;;;;1665302;29;21680;-58
2022/03/11 04:32:12;;;;;;;4.07;1.42;;;;;;;;;;1665525;29;21566;-58
2022/03/11 04:33:04;;;;;;;3.40;1.88;;;;;;;;;;1665384;29;22194;-58
2022/03/11 04:33:57;;;;;;;2.05;1.75;;;;;;;;;;1665395;29;21998;-58
2022/03/11 04:34:49;;;;;;;1.38;1.27;;;;;;;;;;1665472;29;22117;-59
2022/03/11 04:35:40;;;;;;;2.38;1.73;;;;;;;;;;1665490;29;21532;-58
2022/03/11 04:36:35;;;;;;;2.17;1.73;;;;;;;;;;1665686;29;21608;-58
2022/03/11 04:37:26;;;;;;;5.53;1.65;;;;;;;;;;1665694;29;21588;-58
2022/03/11 04:38:18;;;;;;;6.97;2.13;;;;;;;;;;1665680;29;21683;-58
2022/03/11 04:39:10;;;;;;;2.88;1.48;;;;;;;;;;1665794;29;21609;-58
2022/03/11 04:40:02;;;;;;;4.63;1.77;;;;;;;;;;1665618;29;21995;-59
2022/03/11 04:40:55;;;;;;;3.55;1.80;;;;;;;;;;1665243;29;21547;-58
2022/03/11 04:41:47;;;;;;;5.28;1.63;;;;;;;;;;1665424;29;21596;-59
2022/03/11 04:42:38;;;;;;;5.05;1.70;;;;;;;;;;1665558;29;21630;-59
2022/03/11 04:43:30;;;;;;;2.50;2.22;;;;;;;;;;1665421;29;21575;-58
2022/03/11 04:44:23;;;;;;;2.45;2.25;;;;;;;;;;1665539;29;21584;-58
2022/03/11 04:45:15;;;;;;;4.03;2.25;;;;;;;;;;1665393;29;21536;-58
2022/03/11 04:46:07;;;;;;;5.72;1.70;;;;;;;;;;1665425;29;21670;-57
2022/03/11 04:46:59;;;;;;;6.85;1.83;;;;;;;;;;1665433;29;22198;-58
2022/03/11 04:47:50;;;;;;;1.95;1.45;;;;;;;;;;1665522;29;21608;-58
2022/03/11 04:48:44;;;;;;;2.35;1.65;;;;;;;;;;1665460;29;21680;-59
2022/03/11 04:49:35;;;;;;;1.67;1.52;;;;;;;;;;1665447;29;21702;-57
2022/03/11 04:50:28;;;;;;;2.90;1.95;;;;;;;;;;1665445;29;21897;-59
2022/03/11 04:51:21;;;;;;;2.53;1.63;;;;;;;;;;1665464;29;21966;-58
2022/03/11 04:52:14;;;;;;;1.30;1.20;;;;;;;;;;1665442;29;21571;-57
2022/03/11 04:53:05;;;;;;;2.40;1.50;;;;;;;;;;1665638;29;21561;-59
2022/03/11 04:53:59;;;;;;;3.65;1.40;;;;;;;;;;1665464;29;22065;-59
2022/03/11 04:54:50;;;;;;;1.58;1.27;;;;;;;;;;1665345;29;21516;-59
2022/03/11 04:55:42;;;;;;;4.93;1.75;;;;;;;;;;1665476;29;21526;-58
2022/03/11 04:56:34;;;;;;;1.83;1.55;;;;;;;;;;1665442;29;21514;-58
2022/03/11 04:57:26;;;;;;;1.65;1.33;;;;;;;;;;1665199;29;21686;-59
2022/03/11 04:58:17;;;;;;;2.28;1.30;;;;;;;;;;1665598;29;21613;-57
2022/03/11 04:59:09;;;;;;;1.88;1.67;;;;;;;;;;1665351;29;21674;-59
2022/03/11 05:00:03;;;;;;;1.25;1.17;;;;;;;;;;1665144;29;21566;-59
2022/03/11 05:00:56;;;;;;;5.82;1.77;;;;;;;;;;1665414;29;21543;-58
2022/03/11 05:01:47;;;;;;;2.17;1.55;;;;;;;;;;1665288;29;21671;-58
2022/03/11 05:02:40;;;;;;;4.20;1.45;;;;;;;;;;1665364;29;21521;-58
2022/03/11 05:03:31;;;;;;;1.98;1.63;;;;;;;;;;1665509;29;22072;-58
2022/03/11 05:04:23;;;;;;;2.17;1.40;;;;;;;;;;1665333;29;21542;-58
2022/03/11 05:05:16;;;;;;;1.98;1.70;;;;;;;;;;1665299;29;22247;-58
2022/03/11 05:06:08;;;;;;;4.57;1.42;;;;;;;;;;1665357;29;21563;-59
2022/03/11 05:06:59;;;;;;;1.95;1.70;;;;;;;;;;1665425;29;21679;-58
2022/03/11 05:07:51;;;;;;;1.52;1.40;;;;;;;;;;1665431;29;21531;-58
2022/03/11 05:08:43;;;;;;;3.85;1.50;;;;;;;;;;1665492;29;21558;-58
2022/03/11 05:09:35;;;;;;;1.77;1.67;;;;;;;;;;1665327;29;21563;-59
2022/03/11 05:10:26;;;;;;;6.25;1.48;;;;;;;;;;1665133;29;21776;-59
2022/03/11 05:11:19;;;;;;;4.15;1.25;;;;;;;;;;1665314;29;21574;-59
2022/03/11 05:12:11;;;;;;;2.88;1.40;;;;;;;;;;1665327;29;21912;-59